Time;durP1;ratioP1;P1;durP2;ratioP2;P2;SDS_P1;SDS_P2;PMS_P1;PMS_P2;Temp;Humidity;BMP_temperature;BMP_pressure;BME280_temperature;BME280_humidity;BME280_pressure;Samples;Min_cycle;Max_cycle;Signal;HPM_P1;HPM_P2
2022/06/19 00:01:51;;;;;;;;;;;;;;;24.67;48.39;99131.38;7312454;19;130238;-36
2022/06/19 00:04:17;;;;;;;;;;;;;;;24.99;54.89;99115.47;7312099;19;131009;-37
2022/06/19 00:06:42;;;;;;;;;;;;;;;25.18;54.31;99117.66;7314085;19;131456;-36
2022/06/19 00:09:08;;;;;;;;;;;;;;;25.27;54.60;99112.16;7312279;19;131043;-37
2022/06/19 00:11:34;;;;;;;;;;;;;;;25.37;53.98;99115.41;7313608;19;129372;-37
2022/06/19 00:14:00;;;;;;;;;;;;;;;25.40;54.62;99106.38;7310982;19;130143;-37
2022/06/19 00:16:26;;;;;;;;;;;;;;;25.45;54.40;99106.66;7313231;19;129248;-36
2022/06/19 00:18:51;;;;;;;;;;;;;;;25.47;55.07;99107.28;7312414;19;128863;-37
2022/06/19 00:21:17;;;;;;;;;;;;;;;25.48;54.74;99109.75;7312822;19;129006;-37
2022/06/19 00:23:42;;;;;;;;;;;;;;;25.40;54.83;99101.09;7313173;19;131039;-36
2022/06/19 00:26:08;;;;;;;;;;;;;;;25.47;54.89;99102.84;7312124;19;131158;-36
2022/06/19 00:28:33;;;;;;;;;;;;;;;25.49;55.07;99107.94;7312749;19;128926;-37
2022/06/19 00:30:58;;;;;;;;;;;;;;;25.49;55.08;99100.03;7310694;19;129434;-36
2022/06/19 00:33:23;;;;;;;;;;;;;;;25.48;54.91;99093.97;7312272;19;128998;-36
2022/06/19 00:35:49;;;;;;;;;;;;;;;25.47;55.02;99089.69;7312748;19;130493;-37
2022/06/19 00:38:14;;;;;;;;;;;;;;;25.49;55.42;99078.97;7311894;19;129188;-36
2022/06/19 00:40:39;;;;;;;;;;;;;;;25.49;55.40;99079.78;7310585;19;129124;-36
2022/06/19 00:43:04;;;;;;;;;;;;;;;24.82;49.22;99077.13;7311499;19;129302;-36
2022/06/19 00:45:35;;;;;;;;;;;;;;;24.70;48.21;99086.38;7312841;19;130098;-37
2022/06/19 00:48:05;;;;;;;;;;;;;;;25.11;54.56;99079.88;7311701;19;129518;-37
2022/06/19 00:50:35;;;;;;;;;;;;;;;25.24;54.97;99080.13;7311211;19;129363;-37
2022/06/19 00:53:01;;;;;;;;;;;;;;;25.34;54.56;99064.91;7312366;19;130576;-37
2022/06/19 00:55:36;;;;;;;;;;;;;;;25.39;54.22;99060.78;7308804;19;129786;-37
2022/06/19 00:58:07;;;;;;;;;;;;;;;25.36;54.91;99036.66;7312081;19;130930;-37
2022/06/19 01:00:32;;;;;;;;;;;;;;;25.48;54.94;99046.59;7308884;19;129594;-37
2022/06/19 01:03:10;;;;;;;;;;;;;;;25.50;54.54;99049.84;7310825;19;129015;-37
2022/06/19 01:05:36;;;;;;;;;;;;;;;25.49;54.71;99042.13;7311637;19;129138;-36
2022/06/19 01:08:01;;;;;;;;;;;;;;;25.49;55.24;99040.31;7309059;19;129899;-37
2022/06/19 01:10:27;;;;;;;;;;;;;;;25.42;55.17;99030.69;7308353;19;130010;-36
2022/06/19 01:12:53;;;;;;;;;;;;;;;25.51;54.85;99042.78;7311527;19;131086;-37
2022/06/19 01:15:20;;;;;;;;;;;;;;;25.52;55.08;99044.38;7309151;19;129728;-37
2022/06/19 01:17:47;;;;;;;;;;;;;;;25.50;55.52;99038.50;7311458;19;128838;-36
2022/06/19 01:20:14;;;;;;;;;;;;;;;25.50;55.22;99038.50;7307446;19;129156;-37
2022/06/19 01:22:42;;;;;;;;;;;;;;;25.51;54.72;99034.88;7309612;19;131048;-37
2022/06/19 01:25:08;;;;;;;;;;;;;;;24.99;48.62;99039.22;7311829;19;130347;-36
2022/06/19 01:30:20;;;;;;;;;;;;;;;25.07;54.43;99042.56;7309950;19;130002;-37
2022/06/19 01:32:47;;;;;;;;;;;;;;;25.24;54.51;99036.22;7310071;19;129120;-39
2022/06/19 01:35:13;;;;;;;;;;;;;;;25.32;54.98;99030.09;7308825;19;130001;-36
2022/06/19 01:37:39;;;;;;;;;;;;;;;25.42;54.14;99020.16;7310890;19;129754;-37
2022/06/19 01:40:08;;;;;;;;;;;;;;;25.40;54.90;99007.16;7310049;19;129520;-36
2022/06/19 01:42:33;;;;;;;;;;;;;;;25.48;54.08;99011.53;7309645;19;129174;-37
2022/06/19 01:44:58;;;;;;;;;;;;;;;25.50;54.82;99012.97;7309417;19;129141;-36
2022/06/19 01:47:24;;;;;;;;;;;;;;;25.50;55.04;99015.63;7311121;19;129464;-37
2022/06/19 01:49:51;;;;;;;;;;;;;;;25.52;54.37;99007.53;7307993;19;129009;-37
2022/06/19 01:52:18;;;;;;;;;;;;;;;25.51;55.23;99004.09;7310498;19;130202;-36
2022/06/19 01:54:45;;;;;;;;;;;;;;;25.51;55.27;99001.47;7308833;19;130922;-37
2022/06/19 01:57:11;;;;;;;;;;;;;;;25.51;54.98;98998.84;7309762;19;129241;-37
2022/06/19 01:59:39;;;;;;;;;;;;;;;25.54;55.43;98992.38;7307847;19;131406;-37
2022/06/19 02:02:05;;;;;;;;;;;;;;;25.54;55.34;98981.84;7309339;19;129420;-37
2022/06/19 02:04:31;;;;;;;;;;;;;;;25.47;55.34;98957.25;7309682;19;129734;-37
2022/06/19 02:06:58;;;;;;;;;;;;;;;25.31;51.40;98955.56;7310958;19;129016;-37
2022/06/19 02:09:23;;;;;;;;;;;;;;;24.80;48.76;98964.22;7309513;19;129590;-37
2022/06/19 02:11:49;;;;;;;;;;;;;;;24.76;52.22;98954.25;7311197;19;129597;-37
2022/06/19 02:14:15;;;;;;;;;;;;;;;25.15;54.81;98952.28;7308910;19;129933;-37
2022/06/19 02:16:42;;;;;;;;;;;;;;;25.30;54.46;98953.13;7311489;19;129188;-36
2022/06/19 02:19:07;;;;;;;;;;;;;;;25.37;55.04;98952.25;7311092;19;129096;-37
2022/06/19 02:21:37;;;;;;;;;;;;;;;25.45;54.71;98946.09;7317406;19;130371;-37
2022/06/19 02:24:04;;;;;;;;;;;;;;;25.46;54.41;98940.66;7316137;19;130440;-37
2022/06/19 02:26:29;;;;;;;;;;;;;;;25.52;54.91;98949.63;7316611;19;129962;-37
2022/06/19 02:28:54;;;;;;;;;;;;;;;25.53;54.38;98957.38;7316037;19;128817;-37
2022/06/19 02:31:20;;;;;;;;;;;;;;;25.53;54.65;98946.84;7314983;19;130117;-37
2022/06/19 02:33:50;;;;;;;;;;;;;;;25.54;54.87;98937.09;7314864;19;130526;-36
2022/06/19 02:36:34;;;;;;;;;;;;;;;25.55;54.65;98951.94;7315336;19;129517;-36
2022/06/19 02:39:00;;;;;;;;;;;;;;;25.55;54.67;98949.28;7315836;19;129279;-37
2022/06/19 02:41:30;;;;;;;;;;;;;;;25.56;55.27;98948.28;7315732;19;131052;-36
2022/06/19 02:43:55;;;;;;;;;;;;;;;25.56;55.50;98943.84;7316466;19;130804;-37
2022/06/19 02:46:21;;;;;;;;;;;;;;;25.51;55.45;98937.47;7316879;19;129574;-36
2022/06/19 02:48:46;;;;;;;;;;;;;;;25.56;54.91;98933.31;7312752;19;129627;-37
2022/06/19 02:51:11;;;;;;;;;;;;;;;24.95;48.78;98930.91;7316007;19;130877;-36
2022/06/19 02:53:36;;;;;;;;;;;;;;;24.68;48.96;98909.59;7314077;19;130768;-37
2022/06/19 02:56:02;;;;;;;;;;;;;;;25.06;54.58;98922.59;7314612;19;129833;-36
2022/06/19 02:58:27;;;;;;;;;;;;;;;25.18;54.81;98901.94;7315926;19;129526;-37
2022/06/19 03:00:53;;;;;;;;;;;;;;;25.36;54.40;98915.59;7313293;19;130366;-36
2022/06/19 03:03:30;;;;;;;;;;;;;;;25.44;55.03;98918.13;7312987;19;131343;-37
2022/06/19 03:05:55;;;;;;;;;;;;;;;25.49;54.37;98913.16;7313439;19;129767;-36
2022/06/19 03:08:21;;;;;;;;;;;;;;;25.52;54.29;98912.78;7313472;19;129069;-37
2022/06/19 03:10:46;;;;;;;;;;;;;;;25.58;54.84;98930.50;7312520;19;129459;-37
2022/06/19 03:13:12;;;;;;;;;;;;;;;25.58;54.28;98925.22;7313676;19;130852;-37
2022/06/19 03:15:37;;;;;;;;;;;;;;;25.56;54.36;98924.59;7312138;19;129344;-37
2022/06/19 03:18:03;;;;;;;;;;;;;;;25.57;54.35;98915.69;7314175;19;130028;-37
2022/06/19 03:20:28;;;;;;;;;;;;;;;25.57;55.26;98913.06;7311408;19;129248;-37
2022/06/19 03:22:54;;;;;;;;;;;;;;;25.58;55.44;98904.19;7314492;19;129123;-37
2022/06/19 03:25:20;;;;;;;;;;;;;;;25.58;55.41;98904.19;7314944;19;131146;-37
2022/06/19 03:27:46;;;;;;;;;;;;;;;25.59;54.99;98900.53;7314252;19;130397;-37
2022/06/19 03:30:12;;;;;;;;;;;;;;;25.59;54.97;98900.53;7312305;19;130841;-37
2022/06/19 03:32:37;;;;;;;;;;;;;;;25.60;55.17;98896.91;7313169;19;130346;-36
2022/06/19 03:35:03;;;;;;;;;;;;;;;24.88;48.85;98902.84;7312843;19;129499;-37
2022/06/19 03:37:28;;;;;;;;;;;;;;;24.77;48.86;98905.91;7314053;19;129196;-37
2022/06/19 03:39:54;;;;;;;;;;;;;;;25.14;54.22;98905.94;7312989;19;129368;-36
2022/06/19 03:42:19;;;;;;;;;;;;;;;25.19;54.43;98893.03;7313695;19;131028;-37
2022/06/19 03:44:44;;;;;;;;;;;;;;;25.39;54.35;98895.00;7314169;19;129137;-37
2022/06/19 03:47:10;;;;;;;;;;;;;;;25.48;54.24;98893.94;7313937;19;129970;-36
2022/06/19 03:49:35;;;;;;;;;;;;;;;25.53;54.28;98890.75;7312782;19;130092;-37
2022/06/19 03:52:00;;;;;;;;;;;;;;;25.55;54.87;98886.91;7313090;19;130254;-36
2022/06/19 03:54:26;;;;;;;;;;;;;;;25.58;55.07;98883.13;7313541;19;128834;-37
2022/06/19 03:56:51;;;;;;;;;;;;;;;25.59;54.55;98879.47;7314424;19;129425;-36
2022/06/19 03:59:17;;;;;;;;;;;;;;;25.59;54.42;98885.56;7312907;19;129046;-37
2022/06/19 04:01:42;;;;;;;;;;;;;;;25.58;54.83;98878.63;7313131;19;130350;-37
2022/06/19 04:04:08;;;;;;;;;;;;;;;25.61;54.87;98882.75;7313902;19;130442;-37
2022/06/19 04:06:35;;;;;;;;;;;;;;;25.49;55.32;98863.13;7313573;19;129000;-37
2022/06/19 04:09:01;;;;;;;;;;;;;;;25.60;55.32;98881.13;7312957;19;129657;-37
2022/06/19 04:11:27;;;;;;;;;;;;;;;25.61;54.73;98878.31;7314443;19;129763;-36
2022/06/19 04:13:53;;;;;;;;;;;;;;;25.61;54.63;98888.00;7312681;19;129420;-37
2022/06/19 04:16:23;;;;;;;;;;;;;;;25.31;50.89;98881.91;7311708;19;130069;-37
2022/06/19 04:18:49;;;;;;;;;;;;;;;24.84;48.38;98883.19;7313041;19;129583;-37
2022/06/19 04:21:15;;;;;;;;;;;;;;;24.92;53.57;98885.75;7313042;19;129327;-37
2022/06/19 04:23:44;;;;;;;;;;;;;;;25.23;54.37;98884.63;7311036;19;129597;-37
2022/06/19 04:26:10;;;;;;;;;;;;;;;25.35;54.70;98882.38;7310888;19;128958;-37
2022/06/19 04:28:36;;;;;;;;;;;;;;;25.45;54.79;98878.47;7312566;19;130408;-37
2022/06/19 04:31:02;;;;;;;;;;;;;;;25.51;55.00;98871.66;7308843;19;129575;-36
2022/06/19 04:33:27;;;;;;;;;;;;;;;25.56;54.64;98869.31;7311904;19;129773;-37
2022/06/19 04:35:53;;;;;;;;;;;;;;;25.59;54.79;98863.66;7309867;19;130065;-37
2022/06/19 04:38:18;;;;;;;;;;;;;;;25.59;55.13;98861.03;7312584;19;129723;-36
2022/06/19 04:40:44;;;;;;;;;;;;;;;25.61;54.65;98864.31;7311225;19;130598;-37
2022/06/19 04:43:10;;;;;;;;;;;;;;;25.61;54.95;98861.69;7311275;19;129337;-37
2022/06/19 04:45:36;;;;;;;;;;;;;;;25.53;54.50;98848.63;7311974;19;129083;-36
2022/06/19 04:48:01;;;;;;;;;;;;;;;25.61;54.91;98864.31;7310786;19;129061;-36
2022/06/19 04:50:26;;;;;;;;;;;;;;;25.52;55.22;98841.69;7310381;19;129702;-37
2022/06/19 04:52:52;;;;;;;;;;;;;;;25.62;55.18;98850.13;7310421;19;129004;-37
2022/06/19 04:55:18;;;;;;;;;;;;;;;25.60;54.96;98844.25;7310124;19;129061;-37
2022/06/19 04:57:43;;;;;;;;;;;;;;;25.61;54.81;98851.97;7311788;19;131247;-37
2022/06/19 05:00:10;;;;;;;;;;;;;;;25.17;49.22;98835.34;7309236;19;129166;-36
2022/06/19 05:02:36;;;;;;;;;;;;;;;24.84;48.64;98846.38;7310347;19;129199;-37
2022/06/19 05:05:02;;;;;;;;;;;;;;;24.97;53.91;98852.66;7310802;19;129403;-37
2022/06/19 05:07:27;;;;;;;;;;;;;;;25.26;54.95;98844.78;7311382;19;130065;-36
2022/06/19 05:09:52;;;;;;;;;;;;;;;25.39;54.31;98841.53;7309587;19;129446;-36
2022/06/19 05:12:17;;;;;;;;;;;;;;;25.49;54.20;98837.63;7308914;19;130066;-36
2022/06/19 05:14:42;;;;;;;;;;;;;;;25.55;54.86;98841.38;7310258;19;131099;-37
2022/06/19 05:17:08;;;;;;;;;;;;;;;25.58;55.00;98841.78;7310779;19;130259;-37
2022/06/19 05:19:33;;;;;;;;;;;;;;;25.60;54.24;98839.00;7310437;19;129678;-37
2022/06/19 05:22:01;;;;;;;;;;;;;;;25.60;54.41;98844.25;7310158;19;129353;-37
2022/06/19 05:24:27;;;;;;;;;;;;;;;25.61;54.65;98838.00;7312137;19;130248;-36
2022/06/19 05:26:52;;;;;;;;;;;;;;;25.52;54.63;98815.38;7311398;19;130087;-37
2022/06/19 05:29:17;;;;;;;;;;;;;;;25.61;54.81;98819.56;7309281;19;129133;-36
2022/06/19 05:31:43;;;;;;;;;;;;;;;25.62;55.05;98821.19;7311112;19;129599;-37
2022/06/19 05:34:08;;;;;;;;;;;;;;;25.61;54.90;98820.38;7308779;19;130794;-37
2022/06/19 05:36:33;;;;;;;;;;;;;;;25.63;54.88;98809.66;7309963;19;129150;-37
2022/06/19 05:38:58;;;;;;;;;;;;;;;25.64;54.58;98808.66;7308273;19;131026;-36
2022/06/19 05:41:23;;;;;;;;;;;;;;;25.63;55.43;98814.94;7309355;19;129053;-36
2022/06/19 05:43:49;;;;;;;;;;;;;;;25.34;50.14;98807.03;7309523;19;129068;-37
2022/06/19 05:46:15;;;;;;;;;;;;;;;24.82;48.94;98812.38;7309551;19;130116;-37
2022/06/19 05:48:41;;;;;;;;;;;;;;;24.91;53.45;98802.56;7309910;19;130408;-37
2022/06/19 05:51:08;;;;;;;;;;;;;;;25.24;54.91;98801.22;7307106;19;128972;-37
2022/06/19 05:53:35;;;;;;;;;;;;;;;25.36;54.98;98797.16;7310270;19;129735;-37
2022/06/19 05:56:01;;;;;;;;;;;;;;;25.46;54.73;98790.63;7315210;19;130316;-37
2022/06/19 05:58:26;;;;;;;;;;;;;;;25.44;54.66;98771.56;7315492;19;130373;-37
2022/06/19 06:00:52;;;;;;;;;;;;;;;25.59;54.59;98787.34;7314979;19;129227;-37
2022/06/19 06:03:18;;;;;;;;;;;;;;;25.61;54.29;98782.72;7315721;19;129018;-37
2022/06/19 06:05:44;;;;;;;;;;;;;;;25.62;55.13;98784.31;7316239;19;129220;-37
2022/06/19 06:08:10;;;;;;;;;;;;;;;25.62;54.98;98779.06;7315523;19;129690;-37
2022/06/19 06:10:35;;;;;;;;;;;;;;;25.62;54.84;98773.78;7314638;19;131897;-36
2022/06/19 06:13:01;;;;;;;;;;;;;;;25.64;55.06;98779.69;7315523;19;129130;-36
2022/06/19 06:15:26;;;;;;;;;;;;;;;25.65;55.20;98794.50;7316164;19;129325;-36
2022/06/19 06:17:51;;;;;;;;;;;;;;;25.64;54.80;98779.69;7317196;19;129682;-36
2022/06/19 06:20:16;;;;;;;;;;;;;;;25.62;54.87;98776.44;7314865;19;129161;-36
2022/06/19 06:22:42;;;;;;;;;;;;;;;25.63;55.46;98770.19;7316480;19;129452;-37
2022/06/19 06:25:10;;;;;;;;;;;;;;;25.62;55.03;98768.53;7314815;19;130340;-35
2022/06/19 06:27:35;;;;;;;;;;;;;;;25.03;49.26;98775.66;7315955;19;129274;-37
2022/06/19 06:30:00;;;;;;;;;;;;;;;24.81;48.72;98775.75;7312948;19;130423;-37
2022/06/19 06:32:26;;;;;;;;;;;;;;;25.12;54.66;98782.44;7315791;19;129184;-36
2022/06/19 06:34:51;;;;;;;;;;;;;;;25.33;54.49;98755.41;7314922;19;129045;-37
2022/06/19 06:37:16;;;;;;;;;;;;;;;25.41;54.83;98761.41;7315264;19;129780;-37
2022/06/19 06:39:41;;;;;;;;;;;;;;;25.51;54.74;98755.84;7315133;19;129005;-37
2022/06/19 06:42:07;;;;;;;;;;;;;;;25.57;54.63;98760.38;7314066;19;128961;-37
2022/06/19 06:44:32;;;;;;;;;;;;;;;25.50;54.58;98741.06;7316166;19;129840;-37
2022/06/19 06:46:59;;;;;;;;;;;;;;;25.61;54.73;98756.38;7316050;19;130002;-37
2022/06/19 06:49:24;;;;;;;;;;;;;;;25.64;54.93;98745.47;7313782;19;129263;-36
2022/06/19 06:51:50;;;;;;;;;;;;;;;25.64;54.72;98738.41;7316869;19;129739;-37
2022/06/19 06:54:15;;;;;;;;;;;;;;;25.62;54.50;98732.50;7314159;19;129495;-37
2022/06/19 06:56:40;;;;;;;;;;;;;;;25.63;54.49;98734.13;7315200;19;129770;-37
2022/06/19 06:59:06;;;;;;;;;;;;;;;25.63;54.98;98733.31;7313971;19;129136;-37
2022/06/19 07:01:32;;;;;;;;;;;;;;;25.64;55.17;98729.69;7312465;19;129747;-37
2022/06/19 07:03:59;;;;;;;;;;;;;;;25.64;54.74;98727.88;7313947;19;130416;-37
2022/06/19 07:06:28;;;;;;;;;;;;;;;25.63;55.17;98733.31;7311724;19;130293;-37
2022/06/19 07:08:54;;;;;;;;;;;;;;;25.63;54.71;98717.53;7314732;19;129953;-37
2022/06/19 07:11:32;;;;;;;;;;;;;;;24.84;49.19;98697.31;7313040;19;129555;-37
2022/06/19 07:13:57;;;;;;;;;;;;;;;24.81;48.65;98712.66;7315152;19;129476;-37
2022/06/19 07:16:23;;;;;;;;;;;;;;;25.24;54.83;98717.84;7311208;19;129885;-36
2022/06/19 07:18:48;;;;;;;;;;;;;;;25.37;54.47;98709.34;7313732;19;129023;-37
2022/06/19 07:21:14;;;;;;;;;;;;;;;25.47;54.93;98701.94;7313370;19;129651;-37
2022/06/19 07:23:39;;;;;;;;;;;;;;;25.54;54.34;98697.56;7313038;19;130140;-37
2022/06/19 07:26:08;;;;;;;;;;;;;;;25.59;54.60;98689.94;7313010;19;129225;-37
2022/06/19 07:28:33;;;;;;;;;;;;;;;25.62;54.38;98694.81;7313268;19;129608;-37
2022/06/19 07:30:58;;;;;;;;;;;;;;;25.63;54.67;98692.00;7312074;19;129592;-37
2022/06/19 07:33:24;;;;;;;;;;;;;;;25.62;55.02;98692.19;7312188;19;129112;-37
2022/06/19 07:35:49;;;;;;;;;;;;;;;25.62;55.12;98685.13;7312904;19;130417;-38
2022/06/19 07:38:15;;;;;;;;;;;;;;;25.64;55.06;98685.75;7314006;19;130001;-37
2022/06/19 07:40:40;;;;;;;;;;;;;;;25.62;54.65;98690.38;7312751;19;130296;-37
2022/06/19 07:43:06;;;;;;;;;;;;;;;25.65;54.64;98694.47;7314309;19;130864;-37
2022/06/19 07:45:31;;;;;;;;;;;;;;;25.65;54.68;98695.25;7313841;19;130278;-37
2022/06/19 07:50:41;;;;;;;;;;;;;;;25.64;55.18;98684.91;7312513;19;129396;-38
2022/06/19 07:53:06;;;;;;;;;;;;;;;25.09;49.39;98679.44;7311869;19;130109;-37
2022/06/19 07:55:31;;;;;;;;;;;;;;;24.84;49.13;98680.72;7311878;19;129105;-37
2022/06/19 07:57:58;;;;;;;;;;;;;;;25.08;54.63;98680.41;7311896;19;129921;-36
2022/06/19 08:00:26;;;;;;;;;;;;;;;25.32;54.69;98677.47;7313052;19;129115;-37
2022/06/19 08:02:52;;;;;;;;;;;;;;;25.42;54.63;98684.09;7312301;19;129460;-37
2022/06/19 08:05:18;;;;;;;;;;;;;;;25.50;54.71;98686.59;7314581;19;130513;-37
2022/06/19 08:07:44;;;;;;;;;;;;;;;25.58;54.39;98693.56;7312039;19;129347;-37
2022/06/19 08:10:13;;;;;;;;;;;;;;;25.49;55.03;98673.63;7312656;19;130675;-37
2022/06/19 08:12:39;;;;;;;;;;;;;;;25.62;54.55;98684.28;7311538;19;129290;-37
2022/06/19 08:15:04;;;;;;;;;;;;;;;25.63;54.84;98691.19;7312142;19;130234;-37
2022/06/19 08:17:30;;;;;;;;;;;;;;;25.63;55.20;98689.38;7311443;19;130181;-38
2022/06/19 08:19:55;;;;;;;;;;;;;;;25.55;55.12;98670.28;7311612;19;130887;-37
2022/06/19 08:22:20;;;;;;;;;;;;;;;25.65;54.94;98694.47;7310531;19;129028;-37
2022/06/19 08:24:45;;;;;;;;;;;;;;;25.65;54.64;98695.25;7311469;19;129700;-37
2022/06/19 08:27:11;;;;;;;;;;;;;;;25.64;54.86;98692.81;7311764;19;129239;-37
2022/06/19 08:29:36;;;;;;;;;;;;;;;25.64;54.86;98691.00;7310998;19;129371;-38
2022/06/19 08:32:01;;;;;;;;;;;;;;;25.65;54.86;98694.47;7311561;19;129828;-37
2022/06/19 08:34:27;;;;;;;;;;;;;;;25.65;55.40;98694.47;7311598;19;129689;-38
2022/06/19 08:36:53;;;;;;;;;;;;;;;24.95;49.27;98682.88;7309234;19;130584;-37
2022/06/19 08:39:19;;;;;;;;;;;;;;;24.81;48.44;98686.38;7310484;19;128968;-37
2022/06/19 08:41:50;;;;;;;;;;;;;;;25.16;54.33;98672.41;7311243;19;128973;-37
2022/06/19 08:44:38;;;;;;;;;;;;;;;25.36;54.70;98684.00;7311305;19;129770;-37
2022/06/19 08:47:27;;;;;;;;;;;;;;;25.46;54.57;98690.63;7311747;19;129771;-37
2022/06/19 08:49:57;;;;;;;;;;;;;;;25.48;54.56;98672.84;7311314;19;129424;-37
2022/06/19 08:52:34;;;;;;;;;;;;;;;25.59;54.69;98679.41;7311272;19;130532;-37
2022/06/19 08:55:05;;;;;;;;;;;;;;;25.61;54.52;98688.75;7309950;19;130459;-37
2022/06/19 08:57:31;;;;;;;;;;;;;;;25.63;54.66;98691.19;7311544;19;130997;-37
2022/06/19 09:00:08;;;;;;;;;;;;;;;25.54;54.96;98676.50;7310337;19;129564;-37
2022/06/19 09:02:52;;;;;;;;;;;;;;;25.64;54.78;98695.44;7308232;19;130956;-37
2022/06/19 09:05:44;;;;;;;;;;;;;;;25.64;55.16;98693.66;7312020;19;130365;-37
2022/06/19 09:08:09;;;;;;;;;;;;;;;25.64;54.80;98693.66;7309770;19;129754;-37
2022/06/19 09:10:46;;;;;;;;;;;;;;;25.65;54.66;98694.47;7308900;19;128791;-37
2022/06/19 09:13:25;;;;;;;;;;;;;;;25.64;55.16;98693.66;7308351;19;130493;-37
2022/06/19 09:15:56;;;;;;;;;;;;;;;25.65;55.32;98686.56;7310330;19;130831;-37
2022/06/19 09:18:31;;;;;;;;;;;;;;;25.33;50.77;98685.19;7311290;19;129629;-37
2022/06/19 09:21:05;;;;;;;;;;;;;;;24.90;49.17;98687.88;7308480;19;129203;-37
2022/06/19 09:23:36;;;;;;;;;;;;;;;25.03;53.70;98688.03;7310911;19;130523;-38
2022/06/19 09:26:11;;;;;;;;;;;;;;;25.32;54.74;98680.13;7310984;19;129473;-37
2022/06/19 09:28:46;;;;;;;;;;;;;;;25.43;54.29;98677.03;7309890;19;129198;-37
2022/06/19 09:31:15;;;;;;;;;;;;;;;25.51;54.98;98675.09;7314699;19;129431;-38
2022/06/19 09:33:43;;;;;;;;;;;;;;;25.56;54.98;98666.63;7317795;19;129159;-37
2022/06/19 09:36:17;;;;;;;;;;;;;;;25.60;54.60;98671.31;7316257;19;130532;-38
2022/06/19 09:38:47;;;;;;;;;;;;;;;25.63;54.64;98665.66;7315847;19;129774;-37
2022/06/19 09:41:16;;;;;;;;;;;;;;;25.64;54.42;98661.22;7314895;19;129135;-38
2022/06/19 09:44:00;;;;;;;;;;;;;;;25.63;55.25;98664.88;7316751;19;129527;-35
2022/06/19 09:46:31;;;;;;;;;;;;;;;25.65;54.88;98663.66;7317592;19;130043;-37
2022/06/19 09:48:59;;;;;;;;;;;;;;;25.67;55.15;98663.47;7317807;19;129913;-37
2022/06/19 09:51:43;;;;;;;;;;;;;;;25.66;54.99;98659.22;7318913;19;130919;-37
2022/06/19 09:54:12;;;;;;;;;;;;;;;25.66;55.20;98653.97;7317170;19;129863;-38
2022/06/19 09:56:37;;;;;;;;;;;;;;;25.65;54.87;98663.66;7316422;19;129225;-37
2022/06/19 09:59:05;;;;;;;;;;;;;;;25.66;55.25;98651.34;7317032;19;129247;-37
2022/06/19 10:01:31;;;;;;;;;;;;;;;25.09;49.57;98632.09;7316946;19;129355;-37
2022/06/19 10:03:59;;;;;;;;;;;;;;;24.85;48.56;98638.47;7316417;19;129742;-37
2022/06/19 10:06:44;;;;;;;;;;;;;;;25.03;54.36;98641.53;7316579;19;130368;-37
2022/06/19 10:09:10;;;;;;;;;;;;;;;25.33;54.80;98645.72;7313616;19;131002;-37
2022/06/19 10:11:38;;;;;;;;;;;;;;;25.43;54.63;98629.66;7316694;19;129782;-37
2022/06/19 10:14:06;;;;;;;;;;;;;;;25.52;54.52;98639.03;7315589;19;130199;-37
2022/06/19 10:16:31;;;;;;;;;;;;;;;25.60;54.28;98628.41;7315085;19;130773;-37
2022/06/19 10:18:56;;;;;;;;;;;;;;;25.61;55.05;98630.03;7313521;19;129434;-35
2022/06/19 10:24:27;;;;;;;;;;;;;;;25.63;54.99;98625.38;7314654;19;129402;-37
2022/06/19 10:26:57;;;;;;;;;;;;;;;25.66;54.40;98627.63;7316363;19;129147;-38
2022/06/19 10:29:30;;;;;;;;;;;;;;;25.64;54.87;98624.38;7312777;19;129617;-37
2022/06/19 10:31:58;;;;;;;;;;;;;;;25.65;55.27;98604.97;7315804;19;131055;-37
2022/06/19 10:34:26;;;;;;;;;;;;;;;25.65;54.73;98605.75;7313346;19;131278;-37
2022/06/19 10:37:13;;;;;;;;;;;;;;;25.65;55.26;98604.97;7313356;19;130608;-37
2022/06/19 10:39:45;;;;;;;;;;;;;;;25.66;55.46;98601.31;7312608;19;130888;-37
2022/06/19 10:42:11;;;;;;;;;;;;;;;25.67;54.79;98597.66;7314939;19;129633;-37
2022/06/19 10:44:39;;;;;;;;;;;;;;;25.04;48.81;98590.53;7313372;19;130158;-37
2022/06/19 10:47:08;;;;;;;;;;;;;;;24.84;48.53;98591.34;7315137;19;129225;-37
2022/06/19 10:49:56;;;;;;;;;;;;;;;25.17;54.90;98587.25;7313459;19;129808;-37
2022/06/19 10:52:34;;;;;;;;;;;;;;;25.38;55.03;98587.28;7311212;19;129195;-37
2022/06/19 10:55:22;;;;;;;;;;;;;;;25.49;54.84;98584.97;7313899;19;130435;-37
2022/06/19 10:57:51;;;;;;;;;;;;;;;25.56;54.48;98579.75;7312730;19;129723;-37
2022/06/19 11:00:16;;;;;;;;;;;;;;;25.61;54.43;98580.81;7313976;19;129719;-37
2022/06/19 11:05:41;;;;;;;;;;;;;;;25.63;54.47;98565.63;7315374;19;129276;-36
2022/06/19 11:08:06;;;;;;;;;;;;;;;25.54;55.31;98547.53;7314383;19;130551;-37
2022/06/19 11:10:32;;;;;;;;;;;;;;;25.65;54.49;98568.91;7312147;19;130605;-36
2022/06/19 11:12:58;;;;;;;;;;;;;;;25.65;55.05;98553.09;7314528;19;129211;-36
2022/06/19 11:15:34;;;;;;;;;;;;;;;25.64;54.89;98550.66;7314024;19;129495;-37
2022/06/19 11:18:08;;;;;;;;;;;;;;;25.66;55.17;98543.41;7313994;19;130888;-37
2022/06/19 11:20:33;;;;;;;;;;;;;;;25.65;55.43;98541.78;7313102;19;129080;-36
2022/06/19 11:23:17;;;;;;;;;;;;;;;25.67;55.42;98542.38;7314349;19;129883;-37
2022/06/19 11:25:45;;;;;;;;;;;;;;;25.35;50.54;98535.03;7314408;19;130153;-37
2022/06/19 11:28:13;;;;;;;;;;;;;;;24.90;49.23;98524.84;7313027;19;130365;-37
2022/06/19 11:30:38;;;;;;;;;;;;;;;25.02;53.99;98533.88;7313329;19;130779;-37
2022/06/19 11:33:15;;;;;;;;;;;;;;;25.31;54.44;98518.78;7313662;19;131353;-37
2022/06/19 11:35:53;;;;;;;;;;;;;;;25.42;54.79;98520.94;7313150;19;130284;-36
2022/06/19 11:38:32;;;;;;;;;;;;;;;25.51;54.49;98521.59;7312914;19;131073;-37
2022/06/19 11:40:58;;;;;;;;;;;;;;;25.58;54.79;98510.09;7311968;19;130336;-37
2022/06/19 11:43:29;;;;;;;;;;;;;;;25.61;54.34;98515.03;7314286;19;129137;-37
2022/06/19 11:46:03;;;;;;;;;;;;;;;25.63;55.13;98501.66;7314231;19;130249;-37
2022/06/19 11:48:28;;;;;;;;;;;;;;;25.65;54.71;98494.41;7313003;19;129968;-37
2022/06/19 11:50:54;;;;;;;;;;;;;;;25.64;55.01;98498.00;7310483;19;130014;-36
2022/06/19 11:53:22;;;;;;;;;;;;;;;25.64;55.06;98493.56;7312974;19;130045;-37
2022/06/19 11:55:47;;;;;;;;;;;;;;;25.67;55.08;98492.34;7311458;19;130015;-36
2022/06/19 11:58:31;;;;;;;;;;;;;;;25.68;54.91;98483.47;7312949;19;129299;-36
2022/06/19 12:01:07;;;;;;;;;;;;;;;25.68;54.79;98483.47;7310019;19;130287;-37
2022/06/19 12:03:32;;;;;;;;;;;;;;;25.67;54.74;98481.81;7313830;19;129562;-37
2022/06/19 12:06:04;;;;;;;;;;;;;;;25.65;54.76;98466.22;7313280;19;129670;-37
2022/06/19 12:08:34;;;;;;;;;;;;;;;25.40;51.64;98469.50;7311986;19;129743;-37
2022/06/19 12:11:00;;;;;;;;;;;;;;;24.92;48.94;98472.91;7310520;19;129525;-37
2022/06/19 12:13:28;;;;;;;;;;;;;;;24.98;52.64;98459.00;7312910;19;129143;-37
2022/06/19 12:15:55;;;;;;;;;;;;;;;25.31;54.99;98467.97;7311174;19;130856;-37
2022/06/19 12:18:20;;;;;;;;;;;;;;;25.42;54.98;98467.50;7311080;19;129292;-37
2022/06/19 12:20:56;;;;;;;;;;;;;;;25.46;55.20;98437.16;7310369;19;129538;-38
2022/06/19 12:23:24;;;;;;;;;;;;;;;25.56;54.81;98448.97;7313474;19;129812;-37
2022/06/19 12:25:52;;;;;;;;;;;;;;;25.50;54.45;98433.94;7313223;19;129609;-37
2022/06/19 12:28:25;;;;;;;;;;;;;;;25.63;54.83;98449.00;7313013;19;129193;-37
2022/06/19 12:31:03;;;;;;;;;;;;;;;25.61;54.91;98445.75;7309013;19;128946;-37
2022/06/19 12:33:44;;;;;;;;;;;;;;;25.67;54.54;98447.59;7312466;19;128911;-37
2022/06/19 12:36:16;;;;;;;;;;;;;;;25.65;54.88;98442.53;7309998;19;130246;-37
2022/06/19 12:38:42;;;;;;;;;;;;;;;25.68;55.39;98441.34;7312416;19;132218;-36
2022/06/19 12:41:07;;;;;;;;;;;;;;;25.67;55.00;98444.97;7309347;19;131294;-38
2022/06/19 12:43:48;;;;;;;;;;;;;;;25.68;55.18;98436.88;7311981;19;130017;-38
2022/06/19 12:46:22;;;;;;;;;;;;;;;25.67;55.24;98430.00;7311871;19;129953;-35
2022/06/19 12:48:54;;;;;;;;;;;;;;;25.68;54.75;98425.56;7310942;19;129668;-37
2022/06/19 12:51:39;;;;;;;;;;;;;;;25.24;49.27;98423.19;7311508;19;129144;-36